| time (UTC) | temp C | wind direction | speed KPH | gust KPH | rain 1hr cm | rain 24hr cm | rain mn cm | humidity % | barometer mb |
| 20260507100027 | 10 | 276 | 3.2 | 12.9 | 0.00 | 0.74 | 0.69 | 95 | 1006.5 |
| 20260507095019 | 10 | 279 | 3.2 | 12.9 | 0.00 | 0.74 | 0.69 | 95 | 1006.4 |
| 20260507094027 | 10 | 279 | 4.8 | 12.9 | 0.00 | 0.74 | 0.69 | 97 | 1006.2 |
| 20260507093019 | 10 | 274 | 3.2 | 8.0 | 0.00 | 0.74 | 0.69 | 98 | 1006.2 |
| 20260507092027 | 10 | 273 | 4.8 | 16.1 | 0.00 | 0.74 | 0.69 | 98 | 1006.0 |
| 20260507091018 | 10 | 275 | 4.8 | 16.1 | 0.00 | 0.74 | 0.69 | 99 | 1005.9 |
| 20260507090026 | 10 | 271 | 4.8 | 16.1 | 0.00 | 0.74 | 0.69 | 99 | 1005.8 |
| 20260507085017 | 10 | 280 | 4.8 | 12.9 | 0.00 | 0.74 | 0.69 | 99 | 1005.6 |
| 20260507084025 | 10 | 278 | 4.8 | 12.9 | 0.00 | 0.74 | 0.69 | 99 | 1005.6 |
| 20260507083032 | 10 | 279 | 1.6 | 8.0 | 0.00 | 0.74 | 0.69 | 99 | 1005.6 |
| 20260507082023 | 10 | 272 | 3.2 | 12.9 | 0.00 | 0.74 | 0.69 | 99 | 1005.5 |
| 20260507081031 | 10 | 277 | 3.2 | 12.9 | 0.00 | 0.74 | 0.69 | 99 | 1005.3 |
| 20260507080023 | 9 | 274 | 1.6 | 8.0 | 0.03 | 0.74 | 0.69 | 99 | 1005.1 |
| 20260507075031 | 9 | 280 | 3.2 | 12.9 | 0.03 | 0.74 | 0.69 | 99 | 1005.1 |
| 20260507074022 | 9 | 271 | 1.6 | 8.0 | 0.03 | 0.74 | 0.69 | 99 | 1005.0 |
| 20260507073029 | 9 | 282 | 1.6 | 8.0 | 0.03 | 0.74 | 0.69 | 99 | 1005.0 |
| 20260507072021 | 10 | 274 | 3.2 | 8.0 | 0.03 | 0.74 | 0.69 | 99 | 1004.9 |
| 20260507071029 | 10 | 275 | 1.6 | 8.0 | 0.03 | 0.74 | 0.69 | 99 | 1004.6 |
| 20260507070021 | 10 | 285 | 1.6 | 8.0 | 0.05 | 0.71 | 0.66 | 99 | 1004.7 |
| 20260507065029 | 10 | 272 | 3.2 | 12.9 | 0.05 | 0.71 | 0.66 | 99 | 1004.6 |
| 20260507064020 | 10 | 256 | 1.6 | 8.0 | 0.08 | 0.71 | 0.66 | 99 | 1004.5 |
| 20260507063028 | 10 | 278 | 3.2 | 12.9 | 0.08 | 0.71 | 0.66 | 99 | 1004.3 |
| 20260507062019 | 10 | 270 | 1.6 | 8.0 | 0.13 | 0.71 | 0.66 | 99 | 1004.4 |
| 20260507061025 | 10 | 279 | 1.6 | 8.0 | 0.15 | 0.71 | 0.66 | 99 | 1004.3 |
| 20260507060017 | 10 | 276 | 1.6 | 12.9 | 0.20 | 0.66 | 0.61 | 99 | 1004.1 |
| 20260507055025 | 10 | 274 | 3.2 | 16.1 | 0.23 | 0.66 | 0.61 | 99 | 1003.8 |
| 20260507054017 | 10 | 275 | 4.8 | 16.1 | 0.20 | 0.64 | 0.58 | 99 | 1003.9 |
| 20260507053025 | 10 | 271 | 1.6 | 8.0 | 0.20 | 0.64 | 0.58 | 99 | 1003.8 |
| 20260507052017 | 10 | 275 | 3.2 | 12.9 | 0.15 | 0.58 | 0.53 | 99 | 1003.7 |
| 20260507051025 | 10 | 266 | 1.6 | 8.0 | 0.15 | 0.56 | 0.51 | 99 | 1003.5 |
| 20260507050032 | 10 | 269 | 1.6 | 3.2 | 0.18 | 0.46 | 0.41 | 99 | 1003.5 |
| 20260507045024 | 10 | 276 | 0.0 | 8.0 | 0.15 | 0.43 | 0.38 | 99 | 1003.4 |
| 20260507044032 | 10 | 279 | 1.6 | 8.0 | 0.18 | 0.43 | 0.38 | 99 | 1003.2 |
| 20260507043023 | 10 | 271 | 1.6 | 8.0 | 0.18 | 0.43 | 0.38 | 99 | 1003.0 |
| 20260507042026 | 10 | 265 | 1.6 | 8.0 | 0.20 | 0.43 | 0.38 | 99 | 1003.1 |
| 20260507041018 | 10 | 270 | 0.0 | 3.2 | 0.18 | 0.41 | 0.36 | 99 | 1002.9 |
| 20260507040025 | 10 | 278 | 0.0 | 3.2 | 0.05 | 0.28 | 0.23 | 99 | 1002.9 |
| 20260507035017 | 10 | 270 | 0.0 | 3.2 | 0.05 | 0.28 | 0.23 | 99 | 1002.8 |
| 20260507034025 | 10 | 272 | 1.6 | 8.0 | 0.08 | 0.25 | 0.20 | 99 | 1002.8 |
| 20260507033017 | 11 | 273 | 0.0 | 8.0 | 0.08 | 0.25 | 0.20 | 99 | 1002.6 |
| 20260507032024 | 11 | 270 | 0.0 | 3.2 | 0.05 | 0.23 | 0.18 | 99 | 1002.6 |
| 20260507031017 | 11 | 270 | 0.0 | 3.2 | 0.08 | 0.23 | 0.18 | 99 | 1002.6 |
| 20260507030024 | 11 | 274 | 0.0 | 3.2 | 0.08 | 0.23 | 0.18 | 99 | 1002.7 |
| 20260507025017 | 11 | 0.0 | 3.2 | 0.08 | 0.23 | 0.18 | 99 | 1002.7 | |
| 20260507024024 | 11 | 272 | 0.0 | 3.2 | 0.05 | 0.18 | 0.13 | 99 | 1002.7 |
| 20260507023030 | 11 | 0.0 | 0.0 | 0.08 | 0.18 | 0.13 | 99 | 1002.6 | |
| 20260507022022 | 11 | 0.0 | 0.0 | 0.08 | 0.18 | 0.13 | 99 | 1002.8 | |
| 20260507021029 | 11 | 0.0 | 0.0 | 0.05 | 0.15 | 0.10 | 99 | 1002.5 | |
| 20260507020020 | 11 | 0.0 | 0.0 | 0.05 | 0.15 | 0.10 | 99 | 1002.4 | |
| 20260507015027 | 11 | 0.0 | 0.0 | 0.05 | 0.15 | 0.10 | 99 | 1002.4 | |
| 20260507014037 | 11 | 0.0 | 0.0 | 0.03 | 0.13 | 0.08 | 99 | 1002.4 | |
| 20260507013021 | 11 | 0.0 | 0.0 | 0.00 | 0.10 | 0.05 | 99 | 1002.5 | |
| 20260507012033 | 11 | 0.0 | 0.0 | 0.03 | 0.13 | 0.05 | 99 | 1002.3 | |
| 20260507011022 | 11 | 0.0 | 0.0 | 0.03 | 0.13 | 0.05 | 99 | 1002.2 | |
| 20260507010017 | 11 | 0.0 | 0.0 | 0.05 | 0.13 | 0.05 | 99 | 1002.2 | |
| 20260507005025 | 11 | 0.0 | 0.0 | 0.05 | 0.13 | 0.05 | 99 | 1002.2 | |
| 20260507004029 | 11 | 0.0 | 0.0 | 0.05 | 0.13 | 0.05 | 99 | 1002.2 | |
| 20260507003021 | 11 | 0.0 | 0.0 | 0.05 | 0.13 | 0.05 | 99 | 1002.2 | |
| 20260507002029 | 11 | 0.0 | 0.0 | 0.03 | 0.10 | 0.03 | 99 | 1002.3 | |
| 20260507001021 | 11 | 0.0 | 0.0 | 0.03 | 0.10 | 0.03 | 99 | 1002.2 | |
| 20260507000029 | 12 | 0.0 | 0.0 | 0.00 | 0.08 | 0.00 | 99 | 1002.2 | |
| 20260506235019 | 12 | 0.0 | 0.0 | 0.00 | 0.08 | 0.00 | 99 | 1002.1 | |
| 20260506234020 | 12 | 0.0 | 0.0 | 0.00 | 0.08 | 0.00 | 99 | 1002.1 | |
| 20260506233018 | 12 | 0.0 | 0.0 | 0.00 | 0.08 | 0.00 | 99 | 1002.1 | |
| 20260506232027 | 12 | 0.0 | 0.0 | 0.00 | 0.08 | 0.00 | 99 | 1002.1 | |
| 20260506231018 | 12 | 0.0 | 0.0 | 0.00 | 0.08 | 0.00 | 99 | 1002.0 | |
| 20260506230025 | 12 | 0.0 | 0.0 | 0.00 | 0.08 | 0.00 | 99 | 1002.0 | |
| 20260506225030 | 12 | 0.0 | 0.0 | 0.00 | 0.08 | 0.00 | 99 | 1001.9 | |
| 20260506224022 | 12 | 0.0 | 0.0 | 0.05 | 0.08 | 0.00 | 99 | 1001.8 | |
| 20260506223028 | 12 | 0.0 | 0.0 | 0.05 | 0.08 | 0.00 | 98 | 1001.8 | |
| 20260506222018 | 12 | 0.0 | 0.0 | 0.05 | 0.08 | 0.00 | 98 | 1001.7 | |
| 20260506221025 | 12 | 0.0 | 0.0 | 0.05 | 0.08 | 0.00 | 97 | 1001.6 | |
| 20260506220017 | 12 | 0.0 | 0.0 | 0.05 | 0.08 | 0.00 | 97 | 1001.5 | |
| 20260506215017 | 11 | 0.0 | 0.0 | 0.05 | 0.08 | 0.08 | 96 | 1001.4 | |
| 20260506214025 | 11 | 0.0 | 0.0 | 0.00 | 0.03 | 0.03 | 96 | 1001.5 | |
| 20260506213016 | 11 | 0.0 | 0.0 | 0.00 | 0.03 | 0.03 | 96 | 1001.3 | |
| 20260506212024 | 11 | 0.0 | 0.0 | 0.00 | 0.03 | 0.03 | 96 | 1001.3 | |
| 20260506211016 | 11 | 0.0 | 0.0 | 0.00 | 0.03 | 0.03 | 95 | 1001.2 | |
| 20260506210024 | 12 | 0.0 | 0.0 | 0.00 | 0.03 | 0.03 | 94 | 1001.1 | |
| 20260506205031 | 12 | 0.0 | 0.0 | 0.00 | 0.03 | 0.03 | 92 | 1001.0 | |
| 20260506204021 | 13 | 0.0 | 0.0 | 0.00 | 0.03 | 0.03 | 91 | 1001.1 | |
| 20260506203028 | 13 | 0.0 | 0.0 | 0.00 | 0.03 | 0.03 | 88 | 1001.2 | |
| 20260506202020 | 13 | 0.0 | 0.0 | 0.00 | 0.03 | 0.03 | 85 | 1001.1 | |
| 20260506201026 | 14 | 0.0 | 0.0 | 0.00 | 0.03 | 0.03 | 80 | 1001.0 | |
| 20260506200031 | 14 | 102 | 0.0 | 3.2 | 0.00 | 0.03 | 0.03 | 79 | 1000.9 |
| 20260506195020 | 14 | 311 | 0.0 | 3.2 | 0.00 | 0.03 | 0.03 | 80 | 1000.8 |
| 20260506194027 | 14 | 0.0 | 0.0 | 0.00 | 0.03 | 0.03 | 84 | 1000.8 | |
| 20260506193030 | 14 | 0.0 | 0.0 | 0.00 | 0.03 | 0.03 | 85 | 1000.8 | |
| 20260506192019 | 13 | 270 | 0.0 | 3.2 | 0.00 | 0.03 | 0.03 | 85 | 1000.5 |
| 20260506191026 | 13 | 0.0 | 0.0 | 0.00 | 0.05 | 0.03 | 86 | 1000.3 | |
| 20260506190019 | 13 | 0.0 | 0.0 | 0.00 | 0.08 | 0.03 | 87 | 1000.2 | |
| 20260506185025 | 14 | 0.0 | 0.0 | 0.00 | 0.18 | 0.03 | 87 | 1000.1 | |
| 20260506184033 | 14 | 0.0 | 0.0 | 0.00 | 0.28 | 0.03 | 86 | 1000.0 | |
| 20260506183023 | 15 | 0.0 | 0.0 | 0.00 | 0.36 | 0.03 | 84 | 999.9 | |
| 20260506182030 | 15 | 0.0 | 0.0 | 0.00 | 0.38 | 0.03 | 83 | 999.7 | |
| 20260506181020 | 15 | 0.0 | 0.0 | 0.00 | 0.43 | 0.03 | 81 | 999.8 | |
| 20260506180027 | 16 | 0.0 | 0.0 | 0.00 | 0.56 | 0.03 | 80 | 999.5 | |
| 20260506175017 | 16 | 0.0 | 0.0 | 0.00 | 0.69 | 0.03 | 78 | 999.6 | |
| 20260506174022 | 16 | 0.0 | 0.0 | 0.00 | 0.84 | 0.03 | 78 | 999.5 | |
| 20260506173026 | 16 | 0.0 | 0.0 | 0.00 | 0.94 | 0.03 | 75 | 999.5 | |
| 20260506172017 | 16 | 271 | 0.0 | 3.2 | 0.00 | 1.07 | 0.03 | 74 | 999.4 |
| 20260506171023 | 16 | 91 | 1.6 | 8.0 | 0.00 | 1.09 | 0.03 | 75 | 999.2 |
| 20260506170030 | 17 | 93 | 1.6 | 8.0 | 0.00 | 1.14 | 0.03 | 73 | 999.4 |
| 20260506165019 | 17 | 0.0 | 3.2 | 0.00 | 1.17 | 0.03 | 71 | 999.3 | |
| 20260506164027 | 17 | 270 | 0.0 | 3.2 | 0.00 | 1.17 | 0.03 | 70 | 999.3 |
| 20260506163018 | 17 | 142 | 0.0 | 3.2 | 0.00 | 1.17 | 0.03 | 71 | 999.6 |
| 20260506162024 | 17 | 271 | 3.2 | 16.1 | 0.00 | 1.17 | 0.03 | 69 | 999.8 |
| 20260506161029 | 18 | 274 | 1.6 | 3.2 | 0.00 | 1.17 | 0.03 | 64 | 999.9 |
| 20260506160017 | 18 | 278 | 1.6 | 8.0 | 0.00 | 1.17 | 0.03 | 63 | 999.7 |
| 20260506155017 | 19 | 275 | 0.0 | 8.0 | 0.00 | 1.17 | 0.03 | 64 | 999.8 |
| 20260506154023 | 19 | 0.0 | 0.0 | 0.00 | 1.17 | 0.03 | 63 | 999.9 | |
| 20260506153028 | 19 | 0.0 | 0.0 | 0.00 | 1.17 | 0.03 | 62 | 999.9 | |
| 20260506152017 | 19 | 0.0 | 0.0 | 0.00 | 1.17 | 0.03 | 62 | 999.9 | |
| 20260506151023 | 19 | 291 | 0.0 | 3.2 | 0.00 | 1.17 | 0.03 | 62 | 1000.0 |
| 20260506150029 | 20 | 270 | 0.0 | 3.2 | 0.00 | 1.17 | 0.03 | 62 | 999.9 |
| 20260506145020 | 20 | 314 | 0.0 | 12.9 | 0.00 | 1.17 | 0.03 | 62 | 999.9 |
| 20260506144027 | 20 | 0.0 | 0.0 | 0.00 | 1.17 | 0.03 | 59 | 1000.0 | |
| 20260506143018 | 21 | 310 | 0.0 | 8.0 | 0.00 | 1.17 | 0.03 | 57 | 1000.2 |
| 20260506142025 | 21 | 282 | 1.6 | 8.0 | 0.00 | 1.17 | 0.03 | 56 | 1000.4 |
| 20260506141032 | 20 | 145 | 0.0 | 3.2 | 0.00 | 1.17 | 0.03 | 56 | 1000.2 |
| 20260506140024 | 20 | 0.0 | 0.0 | 0.00 | 1.17 | 0.03 | 58 | 1000.1 | |
| 20260506135031 | 20 | 270 | 0.0 | 3.2 | 0.00 | 1.17 | 0.03 | 58 | 1000.1 |
| 20260506134021 | 20 | 0.0 | 3.2 | 0.00 | 1.17 | 0.03 | 58 | 1000.2 | |
| 20260506133028 | 20 | 270 | 0.0 | 3.2 | 0.00 | 1.17 | 0.03 | 56 | 1000.3 |
| 20260506132020 | 20 | 0.0 | 0.0 | 0.00 | 1.17 | 0.03 | 58 | 1000.4 | |
| 20260506131028 | 20 | 270 | 0.0 | 3.2 | 0.00 | 1.17 | 0.03 | 61 | 1000.4 |
| 20260506130020 | 20 | 260 | 0.0 | 8.0 | 0.00 | 1.17 | 0.03 | 62 | 1000.4 |
| 20260506125028 | 20 | 261 | 1.6 | 8.0 | 0.00 | 1.17 | 0.03 | 62 | 1000.4 |
| 20260506124020 | 20 | 280 | 1.6 | 12.9 | 0.00 | 1.17 | 0.03 | 58 | 1000.5 |
| 20260506123027 | 20 | 0.0 | 0.0 | 0.00 | 1.17 | 0.03 | 61 | 1000.5 | |
| 20260506122019 | 19 | 282 | 1.6 | 8.0 | 0.00 | 1.17 | 0.03 | 61 | 1000.5 |
| 20260506121027 | 18 | 0.0 | 0.0 | 0.00 | 1.17 | 0.03 | 60 | 1000.4 | |
| 20260506120018 | 18 | 0.0 | 0.0 | 0.00 | 1.17 | 0.03 | 67 | 1000.6 | |
| 20260506115027 | 18 | 159 | 0.0 | 3.2 | 0.00 | 1.17 | 0.03 | 66 | 1000.5 |
| 20260506114017 | 18 | 44 | 0.0 | 3.2 | 0.00 | 1.17 | 0.03 | 65 | 1000.6 |
| 20260506113023 | 19 | 274 | 1.6 | 8.0 | 0.00 | 1.17 | 0.03 | 67 | 1000.7 |
| 20260506112030 | 20 | 0.0 | 0.0 | 0.00 | 1.17 | 0.03 | 67 | 1001.0 | |
| 20260506111021 | 20 | 0.0 | 3.2 | 0.00 | 1.17 | 0.03 | 63 | 1000.9 | |
| 20260506110029 | 19 | 124 | 0.0 | 3.2 | 0.00 | 1.17 | 0.03 | 62 | 1001.0 |
| 20260506105021 | 18 | 296 | 0.0 | 8.0 | 0.00 | 1.17 | 0.03 | 64 | 1000.8 |
| 20260506104028 | 18 | 289 | 1.6 | 12.9 | 0.00 | 1.17 | 0.03 | 66 | 1000.9 |
| 20260506103020 | 18 | 285 | 0.0 | 3.2 | 0.00 | 1.17 | 0.03 | 70 | 1000.9 |
| 20260506102027 | 17 | 0.0 | 0.0 | 0.00 | 1.17 | 0.03 | 70 | 1000.9 | |
| 20260506101020 | 17 | 0.0 | 0.0 | 0.00 | 1.17 | 0.03 | 74 | 1000.9 |